Time;durP1;ratioP1;P1;durP2;ratioP2;P2;SDS_P1;SDS_P2;PMS_P1;PMS_P2;Temp;Humidity;BMP_temperature;BMP_pressure;BME280_temperature;BME280_humidity;BME280_pressure;Samples;Min_cycle;Max_cycle;Signal;HPM_P1;HPM_P2
2022/07/02 00:00:10;;;;;;;3.67;2.67;;;;;;;18.91;58.06;99407.47;6948829;28;20199;-78
2022/07/02 00:03:33;;;;;;;2.77;2.50;;;;;;;18.85;58.38;99422.13;6950415;28;20731;-78
2022/07/02 00:06:55;;;;;;;2.77;2.33;;;;;;;18.57;59.48;99413.06;6950400;28;20207;-79
2022/07/02 00:10:18;;;;;;;2.30;2.10;;;;;;;18.92;58.76;99438.38;6949948;28;20234;-79
2022/07/02 00:13:40;;;;;;;2.50;2.10;;;;;;;19.01;57.70;99417.78;6949995;28;20235;-79
2022/07/02 00:17:04;;;;;;;2.43;2.23;;;;;;;18.70;58.34;99427.25;6954627;28;20226;-79
2022/07/02 00:20:25;;;;;;;2.77;2.50;;;;;;;18.31;59.03;99429.94;6969752;28;20207;-79
2022/07/02 00:23:47;;;;;;;2.60;2.40;;;;;;;18.19;59.46;99429.97;6949329;28;20356;-79
2022/07/02 00:27:10;;;;;;;3.00;2.20;;;;;;;18.26;59.18;99392.44;6949443;28;20307;-80
2022/07/02 00:30:32;;;;;;;2.60;2.40;;;;;;;18.69;58.36;99431.06;6947118;28;20242;-79
2022/07/02 00:33:56;;;;;;;5.73;2.43;;;;;;;18.66;58.18;99436.19;6948748;28;20230;-80
2022/07/02 00:37:18;;;;;;;5.67;2.67;;;;;;;18.59;57.78;99433.63;6949062;28;20209;-80
2022/07/02 00:40:41;;;;;;;2.97;2.27;;;;;;;17.89;58.50;99391.06;6948362;28;20206;-80
2022/07/02 00:44:04;;;;;;;2.53;2.30;;;;;;;18.04;59.69;99435.06;6948917;28;20235;-79
2022/07/02 00:47:26;;;;;;;5.73;2.50;;;;;;;18.16;60.06;99437.78;6948626;28;20300;-80
2022/07/02 00:50:49;;;;;;;2.50;2.30;;;;;;;17.96;59.25;99410.88;6947574;28;20262;-79
2022/07/02 00:54:11;;;;;;;2.80;2.60;;;;;;;17.67;60.31;99421.88;6948188;28;20318;-78
2022/07/02 00:57:33;;;;;;;2.53;2.33;;;;;;;17.96;59.73;99434.56;6947749;28;20653;-81
2022/07/02 01:00:54;;;;;;;5.53;2.60;;;;;;;17.71;59.46;99395.78;6947784;28;20330;-80
2022/07/02 01:04:16;;;;;;;2.90;2.40;;;;;;;17.60;60.62;99427.44;6974441;28;20316;-80
2022/07/02 01:07:41;;;;;;;2.70;2.30;;;;;;;17.63;60.65;99421.50;6975184;28;20357;-79
2022/07/02 01:11:01;;;;;;;2.57;2.33;;;;;;;17.70;60.45;99400.41;6974511;28;20226;-79
2022/07/02 01:14:23;;;;;;;2.53;2.33;;;;;;;18.02;60.18;99422.72;6975120;28;20251;-79
2022/07/02 01:17:45;;;;;;;2.97;2.33;;;;;;;18.08;59.96;99419.03;6974752;28;20238;-79
2022/07/02 01:21:06;;;;;;;2.63;2.30;;;;;;;17.90;59.94;99430.06;6976658;28;20564;-79
2022/07/02 01:24:29;;;;;;;2.57;2.37;;;;;;;17.77;59.86;99408.47;6975958;28;20232;-79
2022/07/02 01:27:51;;;;;;;2.07;1.97;;;;;;;18.00;59.90;99424.84;6974852;28;20236;-80
2022/07/02 01:31:12;;;;;;;2.10;2.00;;;;;;;18.01;59.28;99421.91;6975532;28;20244;-79
2022/07/02 01:34:36;;;;;;;5.30;2.30;;;;;;;18.00;59.64;99422.97;6975543;28;20320;-79
2022/07/02 01:37:58;;;;;;;3.20;2.40;;;;;;;17.86;59.69;99418.00;6974734;28;20209;-79
2022/07/02 01:45:00;;;;;;;4.10;2.10;;;;;;;17.57;60.37;99418.91;6974882;28;20220;-78
2022/07/02 01:48:21;;;;;;;3.83;2.50;;;;;;;17.56;61.14;99414.50;6972679;28;20233;-78
2022/07/02 01:51:43;;;;;;;2.17;2.07;;;;;;;17.67;60.76;99422.72;6973114;28;20304;-79
2022/07/02 01:55:05;;;;;;;3.13;2.10;;;;;;;17.76;60.51;99420.47;6973956;28;20747;-80
2022/07/02 01:58:28;;;;;;;3.43;2.43;;;;;;;17.06;61.01;99414.00;6974444;28;20256;-77
2022/07/02 02:01:50;;;;;;;4.20;2.60;;;;;;;16.84;62.16;99392.94;6974175;28;20219;-77
2022/07/02 02:05:11;;;;;;;2.30;2.20;;;;;;;17.11;61.50;99427.75;6973783;28;20683;-77
2022/07/02 02:08:33;;;;;;;2.90;2.43;;;;;;;17.37;61.49;99423.78;6972912;28;20245;-77
2022/07/02 02:11:55;;;;;;;3.30;2.50;;;;;;;17.22;61.28;99426.94;6973879;28;20619;-77
2022/07/02 02:15:18;;;;;;;4.60;2.60;;;;;;;17.12;61.78;99418.53;6974075;28;20243;-77
2022/07/02 02:18:39;;;;;;;2.33;2.00;;;;;;;17.23;60.90;99389.66;6974333;28;20206;-76
2022/07/02 02:22:01;;;;;;;2.50;2.30;;;;;;;17.34;60.71;99421.56;7001696;28;20206;-78
2022/07/02 02:25:22;;;;;;;3.83;2.40;;;;;;;17.41;60.01;99419.59;6979907;28;20205;-77
2022/07/02 02:28:44;;;;;;;4.63;2.17;;;;;;;17.01;61.44;99383.91;6973322;28;20276;-77
2022/07/02 02:32:08;;;;;;;2.77;2.17;;;;;;;17.29;60.67;99394.97;6974152;28;20267;-77
2022/07/02 02:35:29;;;;;;;1.90;1.80;;;;;;;17.57;59.90;99408.81;6973622;28;20233;-77
2022/07/02 02:38:51;;;;;;;4.10;2.10;;;;;;;17.50;59.57;99423.63;6972839;28;20294;-77
2022/07/02 02:42:13;;;;;;;3.60;2.30;;;;;;;17.33;60.51;99420.72;6973765;28;20242;-77
2022/07/02 02:45:34;;;;;;;2.63;2.43;;;;;;;17.26;61.07;99406.34;6973072;28;20261;-78
2022/07/02 02:48:57;;;;;;;2.50;2.30;;;;;;;17.20;61.89;99425.53;6974285;28;20272;-80
2022/07/02 02:52:19;;;;;;;2.50;2.30;;;;;;;16.96;61.75;99388.38;6975576;28;20240;-79
2022/07/02 02:55:40;;;;;;;2.73;2.50;;;;;;;17.04;62.00;99407.94;6974844;28;20198;-79
2022/07/02 02:59:02;;;;;;;5.73;2.47;;;;;;;17.31;61.81;99413.81;6973918;28;20613;-79
2022/07/02 03:02:23;;;;;;;4.80;2.40;;;;;;;17.04;62.08;99398.94;6972550;28;20832;-79
2022/07/02 03:05:46;;;;;;;2.90;2.70;;;;;;;17.10;62.09;99407.00;6949914;28;20366;-78
2022/07/02 03:09:08;;;;;;;2.20;2.10;;;;;;;17.38;61.51;99400.94;6952017;28;20309;-79
2022/07/02 03:12:29;;;;;;;4.27;2.20;;;;;;;17.42;60.88;99421.25;6952416;28;20292;-79
2022/07/02 03:15:52;;;;;;;2.10;2.00;;;;;;;17.50;60.66;99415.44;6952521;28;20242;-79
2022/07/02 03:19:13;;;;;;;4.27;2.30;;;;;;;17.63;60.11;99417.97;6952062;28;20320;-79
2022/07/02 03:22:37;;;;;;;2.40;2.20;;;;;;;17.49;60.07;99430.13;6951490;28;20311;-79
2022/07/02 03:25:58;;;;;;;2.17;1.97;;;;;;;17.21;59.78;99387.16;6952055;28;20205;-80
2022/07/02 03:29:20;;;;;;;3.80;2.00;;;;;;;17.21;59.62;99419.03;6951231;28;20717;-79
2022/07/02 03:32:41;;;;;;;4.60;1.90;;;;;;;17.26;60.34;99424.59;6951694;28;20231;-79
2022/07/02 03:36:03;;;;;;;3.20;2.30;;;;;;;17.08;60.36;99419.19;6952072;28;20253;-79
2022/07/02 03:39:26;;;;;;;2.97;2.10;;;;;;;17.23;59.93;99435.97;6954646;28;20236;-79
2022/07/02 03:42:47;;;;;;;2.30;2.20;;;;;;;17.11;60.12;99414.13;6952995;28;20214;-79
2022/07/02 03:46:09;;;;;;;2.93;2.47;;;;;;;17.25;60.07;99426.50;6953113;28;20191;-79
2022/07/02 03:49:31;;;;;;;3.13;2.33;;;;;;;17.23;60.13;99438.69;6954611;28;20234;-79
2022/07/02 03:52:52;;;;;;;2.00;1.90;;;;;;;16.90;60.20;99405.63;6952259;28;20291;-79
2022/07/02 03:56:15;;;;;;;2.63;2.23;;;;;;;17.05;59.69;99433.31;6950955;28;20296;-79
2022/07/02 03:59:37;;;;;;;1.90;1.80;;;;;;;16.66;60.87;99417.50;6950754;28;20205;-79
2022/07/02 04:02:58;;;;;;;3.47;2.57;;;;;;;16.89;60.85;99451.13;6950328;28;20231;-79
2022/07/02 04:06:20;;;;;;;2.77;2.30;;;;;;;17.02;60.58;99442.78;6950011;28;20356;-80
2022/07/02 04:09:41;;;;;;;3.50;2.23;;;;;;;16.86;60.89;99442.59;6949626;28;20320;-79
2022/07/02 04:13:04;;;;;;;2.20;2.10;;;;;;;16.60;61.55;99440.19;6950272;28;20257;-79
2022/07/02 04:16:26;;;;;;;2.50;2.30;;;;;;;16.78;60.55;99421.09;6949845;28;20214;-79
2022/07/02 04:19:47;;;;;;;3.33;2.20;;;;;;;16.86;61.34;99440.69;6959174;28;20217;-79
2022/07/02 04:23:09;;;;;;;3.83;2.20;;;;;;;17.04;60.85;99446.09;6966666;28;20254;-79
2022/07/02 04:26:31;;;;;;;2.70;2.30;;;;;;;17.09;60.74;99443.50;6950958;28;20291;-79
2022/07/02 04:29:53;;;;;;;2.93;2.30;;;;;;;16.94;61.16;99440.38;6976584;28;20231;-79
2022/07/02 04:33:15;;;;;;;2.30;2.10;;;;;;;17.17;60.28;99445.06;6977019;28;20316;-78
2022/07/02 04:36:37;;;;;;;6.80;2.53;;;;;;;16.62;61.48;99454.38;6977342;28;20294;-79
2022/07/02 04:39:59;;;;;;;3.77;2.40;;;;;;;16.81;62.02;99448.69;6976250;28;20198;-79
2022/07/02 04:43:20;;;;;;;2.40;2.30;;;;;;;16.74;62.39;99452.59;6976804;28;20234;-79
2022/07/02 04:46:43;;;;;;;3.97;2.30;;;;;;;16.93;62.35;99452.31;6976530;28;20303;-79
2022/07/02 04:50:06;;;;;;;3.03;2.30;;;;;;;17.42;61.20;99460.25;6976318;28;20313;-78
2022/07/02 04:53:27;;;;;;;2.30;2.20;;;;;;;17.83;59.90;99441.13;6976383;28;20228;-78
2022/07/02 04:56:49;;;;;;;2.63;2.00;;;;;;;18.19;59.15;99440.03;6976535;28;20212;-78
2022/07/02 05:00:12;;;;;;;2.60;2.30;;;;;;;18.42;58.81;99454.53;6975821;28;20212;-77
2022/07/02 05:03:34;;;;;;;3.73;2.30;;;;;;;18.62;58.83;99449.50;6975742;28;20280;-78
2022/07/02 05:06:57;;;;;;;2.90;2.23;;;;;;;19.05;58.12;99446.28;6976736;28;20213;-78
2022/07/02 05:10:18;;;;;;;2.63;2.37;;;;;;;19.97;56.56;99443.03;6975664;28;20214;-78
2022/07/02 05:13:40;;;;;;;2.43;2.17;;;;;;;19.94;55.25;99438.88;6976656;28;20257;-78
2022/07/02 05:17:02;;;;;;;1.90;1.80;;;;;;;19.95;56.63;99434.25;6976176;28;20279;-78
2022/07/02 05:20:25;;;;;;;2.03;1.93;;;;;;;20.31;54.84;99426.34;6975710;28;20295;-79
2022/07/02 05:23:46;;;;;;;4.03;2.40;;;;;;;19.93;56.65;99428.19;6975656;28;20245;-78
2022/07/02 05:27:08;;;;;;;2.00;1.90;;;;;;;19.97;57.01;99449.34;6975565;28;20242;-78
2022/07/02 05:30:29;;;;;;;2.30;2.10;;;;;;;20.37;56.87;99451.88;6973281;28;20264;-79
2022/07/02 05:33:51;;;;;;;2.33;2.03;;;;;;;20.66;56.17;99454.22;6974316;28;20237;-78
2022/07/02 05:37:14;;;;;;;3.03;2.20;;;;;;;20.94;55.78;99453.25;6974068;28;20209;-77
2022/07/02 05:40:35;;;;;;;4.67;2.70;;;;;;;21.16;54.97;99438.41;6968701;28;20764;-78
2022/07/02 05:43:57;;;;;;;1.80;1.70;;;;;;;21.41;55.29;99436.75;6974718;28;20380;-78
2022/07/02 05:47:19;;;;;;;4.93;2.03;;;;;;;21.81;54.18;99439.91;6974212;28;20209;-80
2022/07/02 05:50:40;;;;;;;2.13;1.73;;;;;;;22.20;53.44;99446.78;6973067;28;20365;-78
2022/07/02 05:54:04;;;;;;;2.23;2.00;;;;;;;22.52;52.79;99444.84;6975572;28;20232;-80
2022/07/02 05:57:25;;;;;;;1.67;1.57;;;;;;;23.45;50.95;99436.41;6975898;28;20215;-79
2022/07/02 06:00:47;;;;;;;1.67;1.57;;;;;;;23.31;50.60;99423.44;6974935;28;20213;-79
2022/07/02 06:04:08;;;;;;;3.50;1.73;;;;;;;23.07;52.15;99441.50;6975330;28;20639;-79
2022/07/02 06:11:10;;;;;;;1.27;1.20;;;;;;;24.10;48.79;99439.22;6975906;28;20219;-80
2022/07/02 06:14:33;;;;;;;2.00;1.23;;;;;;;24.65;46.38;99407.97;6975724;28;20225;-80
2022/07/02 06:17:59;;;;;;;1.30;1.20;;;;;;;25.55;44.86;99438.69;6973263;28;20678;-79
2022/07/02 06:21:20;;;;;;;1.10;1.10;;;;;;;25.91;43.40;99381.25;6975774;28;20237;-79
2022/07/02 06:24:42;;;;;;;1.27;0.93;;;;;;;26.10;44.00;99440.22;6973585;28;20322;-79
2022/07/02 06:28:05;;;;;;;1.10;1.10;;;;;;;24.76;46.35;99431.63;6974753;28;20203;-79
2022/07/02 06:31:27;;;;;;;1.30;1.30;;;;;;;25.30;46.12;99444.38;6974895;28;20306;-79
2022/07/02 06:34:48;;;;;;;3.53;1.70;;;;;;;24.15;46.29;99438.38;6975473;28;20728;-79
2022/07/02 06:38:11;;;;;;;2.10;1.60;;;;;;;23.76;48.37;99420.72;6974758;28;20776;-79
2022/07/02 06:45:18;;;;;;;1.43;1.30;;;;;;;24.09;47.62;99429.31;6969390;28;20237;-79
2022/07/02 06:48:40;;;;;;;2.83;1.60;;;;;;;24.32;46.57;99328.66;6978808;28;20203;-79
2022/07/02 06:52:01;;;;;;;1.23;1.23;;;;;;;26.10;43.08;99396.00;6978620;28;20236;-80
2022/07/02 06:55:23;;;;;;;0.97;0.97;;;;;;;26.40;41.01;99429.69;6979194;28;20265;-79
2022/07/02 06:58:45;;;;;;;0.80;0.80;;;;;;;26.66;39.22;99420.03;6979576;28;20221;-79
2022/07/02 07:02:08;;;;;;;1.70;1.17;;;;;;;26.53;40.47;99426.22;6980430;28;20222;-80
2022/07/02 07:05:29;;;;;;;1.13;1.07;;;;;;;25.20;43.67;99418.75;6980821;28;20243;-79
2022/07/02 07:08:52;;;;;;;1.37;1.00;;;;;;;26.83;39.50;99425.91;6979855;28;20199;-79
2022/07/02 07:12:18;;;;;;;1.50;0.90;;;;;;;26.47;39.89;99408.03;6979959;28;20231;-79
2022/07/02 07:15:40;;;;;;;0.97;0.70;;;;;;;27.18;38.65;99388.69;6980569;28;20207;-79
2022/07/02 07:19:04;;;;;;;1.27;0.87;;;;;;;27.54;37.74;99426.59;6980176;28;20857;-79
2022/07/02 07:22:26;;;;;;;3.43;1.47;;;;;;;27.06;38.64;99404.84;6980892;28;20226;-79
2022/07/02 07:25:47;;;;;;;1.00;0.90;;;;;;;26.89;37.79;99424.72;6979266;28;20293;-80
2022/07/02 07:29:09;;;;;;;0.80;0.80;;;;;;;27.14;38.15;99432.69;6980468;28;20599;-80
2022/07/02 07:32:31;;;;;;;0.70;0.70;;;;;;;26.85;36.95;99426.41;6989822;28;20244;-80
2022/07/02 07:35:53;;;;;;;3.57;1.00;;;;;;;26.70;37.05;99414.72;6995256;28;20206;-80
2022/07/02 07:39:15;;;;;;;0.90;0.90;;;;;;;26.28;37.60;99412.69;6982749;28;20284;-80
2022/07/02 07:42:37;;;;;;;1.13;0.73;;;;;;;26.71;35.71;99419.16;6986447;28;20327;-80
2022/07/02 07:45:58;;;;;;;0.77;0.77;;;;;;;27.24;35.43;99396.59;7002463;28;20196;-80
2022/07/02 07:49:20;;;;;;;1.60;0.80;;;;;;;27.54;34.68;99410.00;7003356;28;20200;-82
2022/07/02 07:52:43;;;;;;;0.97;0.90;;;;;;;27.45;35.05;99411.81;6977408;28;20235;-83
2022/07/02 07:56:05;;;;;;;1.33;0.97;;;;;;;27.58;34.61;99399.97;6957063;28;20564;-82
2022/07/02 07:59:26;;;;;;;0.77;0.77;;;;;;;27.51;34.94;99323.88;6981547;28;20203;-82
2022/07/02 08:02:48;;;;;;;1.27;0.90;;;;;;;27.07;34.85;99381.59;6983091;28;20219;-81
2022/07/02 08:06:10;;;;;;;2.00;1.10;;;;;;;27.97;35.81;99347.78;6982773;28;20204;-82
2022/07/02 08:09:33;;;;;;;2.50;0.90;;;;;;;28.37;33.98;99396.16;6980976;28;20199;-82
2022/07/02 08:12:54;;;;;;;0.67;0.67;;;;;;;27.35;33.25;99394.50;6983173;28;20248;-82
2022/07/02 08:16:16;;;;;;;1.47;0.93;;;;;;;25.93;36.03;99387.31;6978963;28;20212;-82
2022/07/02 08:19:38;;;;;;;2.60;1.00;;;;;;;25.56;37.07;99382.34;6980965;28;20198;-82
2022/07/02 08:22:59;;;;;;;1.20;1.10;;;;;;;27.36;34.41;99376.78;6981418;28;20227;-82
2022/07/02 08:26:22;;;;;;;1.60;1.00;;;;;;;26.56;35.25;99372.28;6981669;28;20208;-84
2022/07/02 08:29:44;;;;;;;0.90;0.90;;;;;;;27.39;35.59;99385.31;6979784;28;20212;-83
2022/07/02 08:33:05;;;;;;;1.60;1.20;;;;;;;26.01;35.22;99381.16;6979501;28;20246;-81
2022/07/02 08:36:27;;;;;;;1.30;0.90;;;;;;;25.62;36.32;99355.50;6980862;28;20195;-81
2022/07/02 08:39:49;;;;;;;1.00;1.00;;;;;;;25.24;37.88;99364.66;6979878;28;20206;-82
2022/07/02 08:43:13;;;;;;;6.97;5.37;;;;;;;26.79;34.97;99352.09;6981464;28;20243;-81
2022/07/02 08:46:38;;;;;;;3.43;2.37;;;;;;;27.20;32.85;99354.00;6980784;28;20211;-79
2022/07/02 08:50:00;;;;;;;2.33;1.87;;;;;;;28.28;33.07;99359.94;6980486;28;20204;-83
2022/07/02 08:53:21;;;;;;;3.00;1.97;;;;;;;28.55;31.05;99371.06;6981049;28;20232;-82
2022/07/02 08:56:43;;;;;;;1.13;1.07;;;;;;;28.73;32.43;99333.25;6981698;28;20198;-84
2022/07/02 09:00:08;;;;;;;3.73;2.10;;;;;;;27.97;32.67;99339.47;6981721;28;20205;-81
2022/07/02 09:03:30;;;;;;;1.70;0.73;;;;;;;28.49;29.31;99340.97;6981152;28;20224;-80
2022/07/02 09:06:57;;;;;;;1.40;1.17;;;;;;;27.96;31.11;99307.31;6982376;28;20341;-83
2022/07/02 09:10:20;;;;;;;0.70;0.70;;;;;;;27.30;32.72;99331.69;6981982;28;20232;-85
2022/07/02 09:13:42;;;;;;;2.30;1.00;;;;;;;26.77;33.13;99332.19;6982038;28;20228;-82
2022/07/02 09:17:06;;;;;;;4.63;1.40;;;;;;;26.82;32.34;99337.63;6983209;28;20293;-83
2022/07/02 09:20:28;;;;;;;1.23;0.87;;;;;;;27.98;30.95;99341.09;6980782;28;20211;-82
2022/07/02 09:23:51;;;;;;;0.90;0.90;;;;;;;26.54;32.93;99328.31;6982257;28;20229;-82
2022/07/02 09:27:14;;;;;;;1.90;1.10;;;;;;;27.54;33.40;99318.56;6981418;28;20254;-82
2022/07/02 09:30:36;;;;;;;1.20;1.07;;;;;;;28.18;29.38;99265.84;6982255;28;20229;-81
2022/07/02 09:34:00;;;;;;;1.10;0.97;;;;;;;27.67;32.27;99315.00;6986043;28;20214;-82
2022/07/02 09:37:23;;;;;;;1.33;1.23;;;;;;;28.45;30.49;99313.03;6984551;28;20202;-82
2022/07/02 09:40:52;;;;;;;1.87;0.90;;;;;;;27.52;30.54;99319.97;6979173;28;20202;-81
2022/07/02 09:44:13;;;;;;;2.20;1.03;;;;;;;28.69;30.71;99310.00;6979060;28;20240;-82
2022/07/02 09:47:36;;;;;;;0.70;0.70;;;;;;;29.99;28.94;99306.88;6977734;28;20207;-83
2022/07/02 09:51:03;;;;;;;1.67;1.03;;;;;;;28.91;28.24;99322.00;6978746;28;20227;-82
2022/07/02 09:54:26;;;;;;;1.23;1.00;;;;;;;29.61;27.30;99306.47;6978628;28;20221;-82
2022/07/02 09:57:52;;;;;;;1.53;1.07;;;;;;;29.98;28.81;99328.31;6977593;28;20205;-82
2022/07/02 10:01:17;;;;;;;0.90;0.90;;;;;;;30.08;27.92;99313.31;6978852;28;20397;-81
2022/07/02 10:04:39;;;;;;;1.10;1.00;;;;;;;29.81;28.20;99321.81;6980691;28;20302;-82
2022/07/02 10:08:03;;;;;;;1.07;0.80;;;;;;;29.66;26.32;99286.09;7005788;28;20209;-81
2022/07/02 10:11:25;;;;;;;1.33;1.00;;;;;;;28.41;26.31;99316.69;6985010;28;20220;-81
2022/07/02 10:14:48;;;;;;;0.80;0.80;;;;;;;28.44;28.65;99313.34;6981841;28;20228;-81
2022/07/02 10:18:10;;;;;;;0.70;0.70;;;;;;;28.98;27.68;99316.88;6988133;28;20207;-81
2022/07/02 10:21:31;;;;;;;1.90;1.17;;;;;;;29.77;26.82;99304.94;6987191;28;20200;-81
2022/07/02 10:24:54;;;;;;;1.50;0.93;;;;;;;30.37;27.06;99300.53;6987807;28;20464;-82
2022/07/02 10:28:16;;;;;;;0.70;0.70;;;;;;;28.57;27.42;99304.16;6988053;28;20236;-82
2022/07/02 10:31:43;;;;;;;1.30;0.97;;;;;;;28.81;27.99;99290.88;6987133;28;20302;-81
2022/07/02 10:35:10;;;;;;;0.80;0.80;;;;;;;29.00;28.13;99286.00;6988581;28;20196;-82
2022/07/02 10:38:34;;;;;;;0.97;0.97;;;;;;;29.97;26.76;99287.75;6987362;28;20197;-81
2022/07/02 10:42:02;;;;;;;1.17;0.83;;;;;;;30.46;25.64;99281.06;6987521;28;20227;-81
2022/07/02 10:45:25;;;;;;;0.60;0.60;;;;;;;30.06;26.02;99283.03;6986910;28;20222;-82
2022/07/02 10:48:50;;;;;;;1.60;0.70;;;;;;;30.85;24.89;99278.25;6987163;28;20291;-81
2022/07/02 10:52:12;;;;;;;0.83;0.80;;;;;;;31.53;24.40;99275.47;6987013;28;20272;-81
2022/07/02 10:55:33;;;;;;;1.00;0.73;;;;;;;31.37;24.13;99277.94;6988401;28;20238;-82
2022/07/02 10:58:57;;;;;;;0.80;0.80;;;;;;;28.17;27.86;99283.59;6987663;28;20272;-81
2022/07/02 11:02:18;;;;;;;0.93;0.87;;;;;;;29.48;26.35;99251.75;6987748;28;20233;-81
2022/07/02 11:05:54;;;;;;;1.60;0.80;;;;;;;29.04;25.51;99282.31;6987366;28;20270;-82
2022/07/02 11:09:15;;;;;;;0.77;0.77;;;;;;;28.93;27.48;99255.88;6987851;28;20347;-81
2022/07/02 11:12:47;;;;;;;1.97;0.77;;;;;;;30.49;26.01;99270.09;6987464;28;20232;-81
2022/07/02 11:16:22;;;;;;;1.63;1.20;;;;;;;30.96;25.17;99257.28;6995507;28;20273;-82
2022/07/02 11:19:51;;;;;;;1.10;0.87;;;;;;;30.09;26.02;99251.81;6988714;28;20336;-81
2022/07/02 11:23:13;;;;;;;1.47;0.83;;;;;;;31.31;25.68;99261.75;6987647;28;20605;-82
2022/07/02 11:26:35;;;;;;;0.80;0.80;;;;;;;31.91;24.56;99251.31;6985640;28;20696;-81
2022/07/02 11:29:56;;;;;;;1.83;1.00;;;;;;;31.93;23.74;99251.78;6982886;28;20216;-82
2022/07/02 11:33:19;;;;;;;0.90;0.90;;;;;;;30.98;24.82;99238.28;6982686;28;20257;-81
2022/07/02 11:36:41;;;;;;;1.83;0.97;;;;;;;30.94;24.69;99217.78;6983942;28;20220;-81
2022/07/02 11:40:02;;;;;;;0.77;0.77;;;;;;;31.77;25.20;99234.78;6983373;28;20208;-81
2022/07/02 11:43:24;;;;;;;0.90;0.90;;;;;;;30.98;25.95;99207.63;6983863;28;20241;-82
2022/07/02 11:46:49;;;;;;;0.67;0.67;;;;;;;30.83;26.01;99222.06;6983803;28;20675;-81
2022/07/02 11:50:12;;;;;;;1.30;0.67;;;;;;;31.43;23.69;99212.50;6982763;28;20213;-82
2022/07/02 11:53:33;;;;;;;0.80;0.80;;;;;;;31.19;25.13;99240.09;6976288;28;20249;-81
2022/07/02 11:56:55;;;;;;;0.93;0.90;;;;;;;31.57;24.97;99227.09;6975204;28;20221;-81
2022/07/02 12:00:19;;;;;;;0.60;0.60;;;;;;;31.13;25.15;99213.50;6982129;28;20202;-81
2022/07/02 12:03:44;;;;;;;0.70;0.70;;;;;;;31.40;25.29;99201.22;6982997;28;20226;-81
2022/07/02 12:07:07;;;;;;;0.73;0.73;;;;;;;31.67;24.67;99200.81;6983093;28;20187;-81
2022/07/02 12:10:29;;;;;;;1.63;0.93;;;;;;;30.27;24.27;99219.31;6979236;28;20599;-81
2022/07/02 12:13:52;;;;;;;0.77;0.77;;;;;;;30.48;26.04;99215.59;6982117;28;20313;-81
2022/07/02 12:17:13;;;;;;;1.13;0.93;;;;;;;30.22;27.08;99208.31;6982666;28;20694;-81
2022/07/02 12:20:36;;;;;;;1.17;1.07;;;;;;;31.63;25.13;99200.66;6980540;28;20214;-81
2022/07/02 12:23:59;;;;;;;1.20;1.10;;;;;;;31.55;25.08;99187.56;6981567;28;20691;-81
2022/07/02 12:27:23;;;;;;;0.80;0.80;;;;;;;31.72;25.41;99192.31;6980739;28;20350;-81
2022/07/02 12:30:52;;;;;;;1.17;0.90;;;;;;;31.79;24.29;99189.81;6981726;28;20666;-82
2022/07/02 12:34:14;;;;;;;1.70;0.97;;;;;;;31.34;25.82;99181.06;6977588;28;20234;-82
2022/07/02 12:37:37;;;;;;;1.23;0.93;;;;;;;31.00;25.10;99167.16;6980890;28;20359;-84
2022/07/02 12:41:01;;;;;;;2.17;0.77;;;;;;;31.42;24.22;99169.06;6993426;28;20217;-82
2022/07/02 12:44:23;;;;;;;0.70;0.70;;;;;;;31.00;24.49;99181.09;6995217;28;20232;-82
2022/07/02 12:47:45;;;;;;;0.70;0.70;;;;;;;31.22;23.98;99169.78;6982645;28;20208;-82
2022/07/02 12:51:09;;;;;;;3.03;1.00;;;;;;;31.04;24.89;99158.97;6993148;28;20222;-82
2022/07/02 12:54:36;;;;;;;0.80;0.80;;;;;;;32.42;22.96;99145.00;6980764;28;20593;-82
2022/07/02 12:58:02;;;;;;;0.60;0.60;;;;;;;31.54;24.33;99143.31;6981667;28;20233;-82
2022/07/02 13:01:24;;;;;;;2.43;0.73;;;;;;;31.60;24.96;99145.56;6978173;28;20187;-82
2022/07/02 13:04:45;;;;;;;0.50;0.50;;;;;;;32.23;24.15;99145.44;6978953;28;20227;-82
2022/07/02 13:08:07;;;;;;;0.83;0.77;;;;;;;31.69;23.86;99135.19;6978106;28;20570;-82
2022/07/02 13:11:30;;;;;;;0.80;0.80;;;;;;;31.32;24.22;99135.16;6978674;28;20257;-82
2022/07/02 13:14:53;;;;;;;1.47;1.00;;;;;;;31.42;25.90;99132.84;6978438;28;20229;-82
2022/07/02 13:18:15;;;;;;;0.50;0.50;;;;;;;31.60;25.06;99137.19;6977697;28;20206;-82
2022/07/02 13:21:38;;;;;;;0.87;0.87;;;;;;;31.49;24.67;99132.31;6976718;28;20209;-82
2022/07/02 13:24:59;;;;;;;1.83;0.97;;;;;;;31.65;25.48;99119.44;6978517;28;20241;-82
2022/07/02 13:28:21;;;;;;;0.80;0.80;;;;;;;32.07;24.10;99113.69;6977655;28;20254;-82
2022/07/02 13:31:44;;;;;;;2.17;0.90;;;;;;;32.17;26.35;99115.25;6977840;28;20316;-82
2022/07/02 13:35:06;;;;;;;1.20;1.10;;;;;;;31.76;24.99;99093.69;6977771;28;20211;-82
2022/07/02 13:38:28;;;;;;;1.37;1.10;;;;;;;31.89;25.41;99105.78;6977891;28;20282;-82
2022/07/02 13:41:49;;;;;;;1.87;1.07;;;;;;;31.72;25.84;99081.56;6978223;28;20285;-83
2022/07/02 13:45:11;;;;;;;0.90;0.90;;;;;;;32.53;24.00;99098.75;6977321;28;20221;-83
2022/07/02 13:48:34;;;;;;;2.03;1.00;;;;;;;31.86;25.59;99098.88;6976775;28;20218;-83
2022/07/02 13:51:56;;;;;;;1.00;0.97;;;;;;;31.77;26.48;99083.38;6976906;28;20333;-82
2022/07/02 13:55:17;;;;;;;1.10;1.10;;;;;;;30.62;26.76;99079.03;6977986;28;20293;-83
2022/07/02 13:58:39;;;;;;;1.17;0.90;;;;;;;30.17;27.46;99086.91;6977137;28;20332;-82
2022/07/02 14:02:01;;;;;;;1.97;1.17;;;;;;;31.29;26.53;99083.69;6977517;28;20364;-82
2022/07/02 14:05:23;;;;;;;0.93;0.93;;;;;;;31.89;26.29;99072.28;6977685;28;20218;-82
2022/07/02 14:08:45;;;;;;;1.93;0.80;;;;;;;30.39;26.73;99058.09;6978143;28;20271;-83
2022/07/02 14:12:09;;;;;;;1.20;0.93;;;;;;;30.63;26.56;99062.00;6977308;28;20275;-82
2022/07/02 14:15:31;;;;;;;0.87;0.70;;;;;;;31.60;25.89;99047.16;6968669;28;20676;-82
2022/07/02 14:18:52;;;;;;;0.93;0.83;;;;;;;31.20;27.02;99063.38;6978029;28;20206;-82
2022/07/02 14:22:18;;;;;;;1.13;1.10;;;;;;;31.04;27.51;99081.78;6978745;28;20228;-82
2022/07/02 14:25:39;;;;;;;1.43;0.80;;;;;;;30.02;26.02;99067.03;6978937;28;20658;-82
2022/07/02 14:29:01;;;;;;;1.60;1.10;;;;;;;30.19;27.48;99056.78;6974670;28;20287;-82
2022/07/02 14:32:22;;;;;;;1.83;1.00;;;;;;;30.12;27.35;99041.72;6976332;28;20245;-83
2022/07/02 14:35:45;;;;;;;0.80;0.80;;;;;;;31.34;26.17;99052.03;6978574;28;20671;-82
2022/07/02 14:39:08;;;;;;;0.90;0.90;;;;;;;31.33;25.85;99062.38;6977475;28;20209;-82
2022/07/02 14:42:30;;;;;;;1.13;1.10;;;;;;;31.82;24.74;99063.63;6978354;28;20245;-82
2022/07/02 14:45:51;;;;;;;1.07;0.70;;;;;;;31.61;25.74;99060.75;6977573;28;20674;-82
2022/07/02 14:49:13;;;;;;;1.13;1.03;;;;;;;31.22;25.21;99033.25;6978264;28;20332;-82
2022/07/02 14:52:35;;;;;;;1.33;0.60;;;;;;;31.21;24.62;99014.91;6976224;28;20299;-82
2022/07/02 14:55:58;;;;;;;0.80;0.80;;;;;;;31.88;23.85;99042.75;6977539;28;20673;-82
2022/07/02 14:59:19;;;;;;;3.63;0.90;;;;;;;31.46;24.85;99033.47;6978166;28;20220;-83
2022/07/02 15:02:41;;;;;;;1.13;0.93;;;;;;;31.39;24.97;98983.00;6982055;28;20270;-83
2022/07/02 15:06:03;;;;;;;0.97;0.97;;;;;;;31.08;24.17;99026.22;6982397;28;20282;-83
2022/07/02 15:09:24;;;;;;;4.50;3.13;;;;;;;30.14;28.07;99014.41;6982983;28;20220;-83
2022/07/02 15:12:47;;;;;;;1.23;1.13;;;;;;;31.17;26.25;99019.47;6982954;28;20238;-83
2022/07/02 15:16:08;;;;;;;0.97;0.80;;;;;;;30.89;25.71;98992.38;6983777;28;20214;-84
2022/07/02 15:19:29;;;;;;;1.73;1.20;;;;;;;30.72;25.63;98992.44;6982305;28;20287;-83
2022/07/02 15:22:53;;;;;;;1.23;0.77;;;;;;;31.05;26.05;99008.19;6983256;28;20285;-83
2022/07/02 15:26:15;;;;;;;2.60;0.97;;;;;;;31.63;25.05;98997.13;6982804;28;20213;-81
2022/07/02 15:29:39;;;;;;;0.70;0.70;;;;;;;29.92;26.15;99004.22;6982423;28;20292;-82
2022/07/02 15:33:02;;;;;;;10.90;1.90;;;;;;;29.96;26.04;99004.38;6983264;28;20222;-83
2022/07/02 15:36:25;;;;;;;1.10;1.00;;;;;;;30.49;26.58;98993.75;6983644;28;20209;-83
2022/07/02 15:39:48;;;;;;;1.10;1.00;;;;;;;29.71;26.90;98992.09;6982767;28;20677;-83
2022/07/02 15:43:11;;;;;;;1.40;0.80;;;;;;;31.13;26.00;98990.63;6973177;28;20275;-83
2022/07/02 15:46:34;;;;;;;1.30;1.20;;;;;;;31.51;24.62;98985.88;6982183;28;20201;-83
2022/07/02 15:49:56;;;;;;;1.40;1.30;;;;;;;31.04;25.06;98981.50;6982731;28;20206;-84
2022/07/02 15:53:21;;;;;;;1.23;1.00;;;;;;;31.16;25.00;98983.56;6982091;28;20866;-83
2022/07/02 15:56:47;;;;;;;1.70;0.90;;;;;;;31.16;25.45;98973.25;6979310;28;20206;-83
2022/07/02 16:00:11;;;;;;;0.80;0.80;;;;;;;31.26;24.11;98970.09;6971392;28;20199;-83
2022/07/02 16:03:40;;;;;;;0.70;0.70;;;;;;;31.49;25.02;98974.22;6973324;28;20773;-82